sensor_id;sensor_type;location;lat;lon;timestamp;temperature;humidity
40952;DHT22;26682;51.660;19.338;2023-07-13T00:00:49;19.00;99.90
40952;DHT22;26682;51.660;19.338;2023-07-13T00:03:52;18.90;99.90
40952;DHT22;26682;51.660;19.338;2023-07-13T00:06:34;18.90;99.90
40952;DHT22;26682;51.660;19.338;2023-07-13T00:09:18;18.90;99.90
40952;DHT22;26682;51.660;19.338;2023-07-13T00:12:01;18.90;99.90
40952;DHT22;26682;51.660;19.338;2023-07-13T00:14:44;18.90;99.90
40952;DHT22;26682;51.660;19.338;2023-07-13T00:17:27;18.80;99.90
40952;DHT22;26682;51.660;19.338;2023-07-13T00:20:11;18.80;99.90
40952;DHT22;26682;51.660;19.338;2023-07-13T00:22:54;18.80;99.90
40952;DHT22;26682;51.660;19.338;2023-07-13T00:25:36;18.70;99.90
40952;DHT22;26682;51.660;19.338;2023-07-13T00:28:19;18.70;99.90
40952;DHT22;26682;51.660;19.338;2023-07-13T00:31:02;18.60;99.90
40952;DHT22;26682;51.660;19.338;2023-07-13T00:33:44;18.60;99.90
40952;DHT22;26682;51.660;19.338;2023-07-13T00:36:26;18.60;99.90
40952;DHT22;26682;51.660;19.338;2023-07-13T00:39:09;18.60;99.90
40952;DHT22;26682;51.660;19.338;2023-07-13T00:41:51;18.60;99.90
40952;DHT22;26682;51.660;19.338;2023-07-13T00:44:34;18.50;99.90
40952;DHT22;26682;51.660;19.338;2023-07-13T00:47:17;18.50;99.90
40952;DHT22;26682;51.660;19.338;2023-07-13T00:50:01;18.50;99.90
40952;DHT22;26682;51.660;19.338;2023-07-13T00:52:47;18.50;99.90
40952;DHT22;26682;51.660;19.338;2023-07-13T00:55:30;18.50;99.90
40952;DHT22;26682;51.660;19.338;2023-07-13T00:58:13;18.50;99.90
40952;DHT22;26682;51.660;19.338;2023-07-13T01:00:55;18.40;1.00
40952;DHT22;26682;51.660;19.338;2023-07-13T01:03:37;18.50;1.00
40952;DHT22;26682;51.660;19.338;2023-07-13T01:06:20;18.50;1.00
40952;DHT22;26682;51.660;19.338;2023-07-13T01:09:03;18.40;1.00
40952;DHT22;26682;51.660;19.338;2023-07-13T01:11:47;18.40;1.00
40952;DHT22;26682;51.660;19.338;2023-07-13T01:14:29;18.40;1.00
40952;DHT22;26682;51.660;19.338;2023-07-13T01:17:19;18.40;1.00
40952;DHT22;26682;51.660;19.338;2023-07-13T01:20:02;18.40;1.00
40952;DHT22;26682;51.660;19.338;2023-07-13T01:22:46;18.40;1.00
40952;DHT22;26682;51.660;19.338;2023-07-13T01:25:28;18.40;1.00
40952;DHT22;26682;51.660;19.338;2023-07-13T01:28:11;18.30;1.00
40952;DHT22;26682;51.660;19.338;2023-07-13T01:30:56;18.30;1.00
40952;DHT22;26682;51.660;19.338;2023-07-13T01:33:40;18.30;1.00
40952;DHT22;26682;51.660;19.338;2023-07-13T01:36:22;18.30;1.00
40952;DHT22;26682;51.660;19.338;2023-07-13T01:39:05;18.20;1.00
40952;DHT22;26682;51.660;19.338;2023-07-13T01:41:49;18.10;1.00
40952;DHT22;26682;51.660;19.338;2023-07-13T01:44:53;18.10;1.00
40952;DHT22;26682;51.660;19.338;2023-07-13T01:47:35;18.10;1.00
40952;DHT22;26682;51.660;19.338;2023-07-13T01:50:17;18.10;1.00
40952;DHT22;26682;51.660;19.338;2023-07-13T01:53:01;18.10;1.00
40952;DHT22;26682;51.660;19.338;2023-07-13T01:55:44;18.00;1.00
40952;DHT22;26682;51.660;19.338;2023-07-13T01:58:26;18.00;1.00
40952;DHT22;26682;51.660;19.338;2023-07-13T02:01:09;18.00;1.00
40952;DHT22;26682;51.660;19.338;2023-07-13T02:03:52;18.00;1.00
40952;DHT22;26682;51.660;19.338;2023-07-13T02:06:35;18.00;1.00
40952;DHT22;26682;51.660;19.338;2023-07-13T02:09:17;17.90;1.00
40952;DHT22;26682;51.660;19.338;2023-07-13T02:12:00;17.90;1.00
40952;DHT22;26682;51.660;19.338;2023-07-13T02:14:48;17.80;1.00
40952;DHT22;26682;51.660;19.338;2023-07-13T02:17:30;17.80;1.00
40952;DHT22;26682;51.660;19.338;2023-07-13T02:20:12;17.80;1.00
40952;DHT22;26682;51.660;19.338;2023-07-13T02:22:55;17.70;1.00
40952;DHT22;26682;51.660;19.338;2023-07-13T02:25:37;17.70;1.00
40952;DHT22;26682;51.660;19.338;2023-07-13T02:28:20;17.70;6.60
40952;DHT22;26682;51.660;19.338;2023-07-13T02:31:11;17.70;9.80
40952;DHT22;26682;51.660;19.338;2023-07-13T02:33:54;17.70;44.70
40952;DHT22;26682;51.660;19.338;2023-07-13T02:36:37;17.60;50.20
40952;DHT22;26682;51.660;19.338;2023-07-13T02:39:20;17.70;74.40
40952;DHT22;26682;51.660;19.338;2023-07-13T02:42:03;17.60;99.90
40952;DHT22;26682;51.660;19.338;2023-07-13T02:44:45;17.70;99.90
40952;DHT22;26682;51.660;19.338;2023-07-13T02:47:28;17.70;99.90
40952;DHT22;26682;51.660;19.338;2023-07-13T02:50:11;17.70;99.90
40952;DHT22;26682;51.660;19.338;2023-07-13T02:52:53;17.70;99.90
40952;DHT22;26682;51.660;19.338;2023-07-13T02:55:36;17.70;99.90
40952;DHT22;26682;51.660;19.338;2023-07-13T02:58:19;17.70;99.90
40952;DHT22;26682;51.660;19.338;2023-07-13T03:01:06;17.70;99.90
40952;DHT22;26682;51.660;19.338;2023-07-13T03:03:51;17.70;99.90
40952;DHT22;26682;51.660;19.338;2023-07-13T03:06:34;17.70;99.90
40952;DHT22;26682;51.660;19.338;2023-07-13T03:09:18;17.70;99.90
40952;DHT22;26682;51.660;19.338;2023-07-13T03:12:06;17.70;99.90
40952;DHT22;26682;51.660;19.338;2023-07-13T03:14:49;17.80;99.90
40952;DHT22;26682;51.660;19.338;2023-07-13T03:17:31;17.90;99.90
40952;DHT22;26682;51.660;19.338;2023-07-13T03:20:14;18.00;99.90
40952;DHT22;26682;51.660;19.338;2023-07-13T03:22:57;18.10;99.90
40952;DHT22;26682;51.660;19.338;2023-07-13T03:25:41;18.20;99.90
40952;DHT22;26682;51.660;19.338;2023-07-13T03:28:24;18.30;43.00
40952;DHT22;26682;51.660;19.338;2023-07-13T03:31:10;18.40;1.00
40952;DHT22;26682;51.660;19.338;2023-07-13T03:33:53;18.40;1.00
40952;DHT22;26682;51.660;19.338;2023-07-13T03:36:35;18.50;1.00
40952;DHT22;26682;51.660;19.338;2023-07-13T03:39:21;18.50;1.00
40952;DHT22;26682;51.660;19.338;2023-07-13T03:42:08;18.50;1.00
40952;DHT22;26682;51.660;19.338;2023-07-13T03:44:50;18.50;99.90
40952;DHT22;26682;51.660;19.338;2023-07-13T03:47:35;18.60;99.90
40952;DHT22;26682;51.660;19.338;2023-07-13T03:50:19;18.50;99.90
40952;DHT22;26682;51.660;19.338;2023-07-13T03:53:01;18.50;99.90
40952;DHT22;26682;51.660;19.338;2023-07-13T03:55:43;18.50;99.90
40952;DHT22;26682;51.660;19.338;2023-07-13T03:58:33;18.60;99.90
40952;DHT22;26682;51.660;19.338;2023-07-13T04:01:24;18.60;99.90
40952;DHT22;26682;51.660;19.338;2023-07-13T04:04:07;18.60;99.90
40952;DHT22;26682;51.660;19.338;2023-07-13T04:06:49;18.70;99.90
40952;DHT22;26682;51.660;19.338;2023-07-13T04:09:32;18.70;99.90
40952;DHT22;26682;51.660;19.338;2023-07-13T04:12:14;18.80;99.90
40952;DHT22;26682;51.660;19.338;2023-07-13T04:14:57;18.80;99.90
40952;DHT22;26682;51.660;19.338;2023-07-13T04:17:40;18.90;99.90
40952;DHT22;26682;51.660;19.338;2023-07-13T04:20:24;19.00;99.90
40952;DHT22;26682;51.660;19.338;2023-07-13T04:23:06;19.00;99.90
40952;DHT22;26682;51.660;19.338;2023-07-13T04:25:51;19.20;99.90
40952;DHT22;26682;51.660;19.338;2023-07-13T04:28:34;19.30;99.90
40952;DHT22;26682;51.660;19.338;2023-07-13T04:31:18;19.30;99.90
40952;DHT22;26682;51.660;19.338;2023-07-13T04:34:00;19.40;99.90
40952;DHT22;26682;51.660;19.338;2023-07-13T04:36:43;19.50;99.90
40952;DHT22;26682;51.660;19.338;2023-07-13T04:39:25;19.60;99.90
40952;DHT22;26682;51.660;19.338;2023-07-13T04:42:08;19.60;99.90
40952;DHT22;26682;51.660;19.338;2023-07-13T04:44:51;19.70;28.50
40952;DHT22;26682;51.660;19.338;2023-07-13T04:47:34;19.70;1.00
40952;DHT22;26682;51.660;19.338;2023-07-13T04:50:16;19.80;1.00
40952;DHT22;26682;51.660;19.338;2023-07-13T04:53:03;19.90;1.00
40952;DHT22;26682;51.660;19.338;2023-07-13T04:55:46;19.90;1.00
40952;DHT22;26682;51.660;19.338;2023-07-13T04:58:29;20.10;1.00
40952;DHT22;26682;51.660;19.338;2023-07-13T05:01:11;20.20;1.00
40952;DHT22;26682;51.660;19.338;2023-07-13T05:03:56;20.50;1.00
40952;DHT22;26682;51.660;19.338;2023-07-13T05:06:40;20.80;99.90
40952;DHT22;26682;51.660;19.338;2023-07-13T05:09:23;20.90;99.90
40952;DHT22;26682;51.660;19.338;2023-07-13T05:12:08;20.90;1.00
40952;DHT22;26682;51.660;19.338;2023-07-13T05:14:50;20.90;1.00
40952;DHT22;26682;51.660;19.338;2023-07-13T05:17:33;21.00;36.20
40952;DHT22;26682;51.660;19.338;2023-07-13T05:20:16;21.30;1.00
40952;DHT22;26682;51.660;19.338;2023-07-13T05:22:59;21.70;99.90
40952;DHT22;26682;51.660;19.338;2023-07-13T05:25:41;21.70;7.50
40952;DHT22;26682;51.660;19.338;2023-07-13T05:28:24;21.60;11.00
40952;DHT22;26682;51.660;19.338;2023-07-13T05:31:08;21.50;1.00
40952;DHT22;26682;51.660;19.338;2023-07-13T05:33:52;21.40;1.00
40952;DHT22;26682;51.660;19.338;2023-07-13T05:36:34;21.20;99.90
40952;DHT22;26682;51.660;19.338;2023-07-13T05:39:17;21.30;99.90
40952;DHT22;26682;51.660;19.338;2023-07-13T05:42:00;21.40;99.90
40952;DHT22;26682;51.660;19.338;2023-07-13T05:44:42;21.80;99.90
40952;DHT22;26682;51.660;19.338;2023-07-13T05:47:25;22.30;1.00
40952;DHT22;26682;51.660;19.338;2023-07-13T05:50:07;22.90;99.90
40952;DHT22;26682;51.660;19.338;2023-07-13T05:52:50;23.10;99.90
40952;DHT22;26682;51.660;19.338;2023-07-13T05:55:33;22.80;99.90
40952;DHT22;26682;51.660;19.338;2023-07-13T05:58:19;22.60;99.90
40952;DHT22;26682;51.660;19.338;2023-07-13T06:01:08;22.70;99.90
40952;DHT22;26682;51.660;19.338;2023-07-13T06:03:52;22.80;99.90
40952;DHT22;26682;51.660;19.338;2023-07-13T06:06:35;22.90;99.90
40952;DHT22;26682;51.660;19.338;2023-07-13T06:09:17;22.90;99.90
40952;DHT22;26682;51.660;19.338;2023-07-13T06:12:00;22.80;47.20
40952;DHT22;26682;51.660;19.338;2023-07-13T06:14:42;22.70;47.60
40952;DHT22;26682;51.660;19.338;2023-07-13T06:17:25;22.30;6.00
40952;DHT22;26682;51.660;19.338;2023-07-13T06:20:09;22.20;99.90
40952;DHT22;26682;51.660;19.338;2023-07-13T06:22:51;22.60;99.90
40952;DHT22;26682;51.660;19.338;2023-07-13T06:25:34;23.20;99.90
40952;DHT22;26682;51.660;19.338;2023-07-13T06:28:16;23.30;22.30
40952;DHT22;26682;51.660;19.338;2023-07-13T06:30:59;23.50;1.00
40952;DHT22;26682;51.660;19.338;2023-07-13T06:33:42;23.90;1.50
40952;DHT22;26682;51.660;19.338;2023-07-13T06:36:26;24.30;99.90
40952;DHT22;26682;51.660;19.338;2023-07-13T06:39:09;24.50;99.90
40952;DHT22;26682;51.660;19.338;2023-07-13T06:41:52;24.40;80.30
40952;DHT22;26682;51.660;19.338;2023-07-13T06:44:34;24.80;60.00
40952;DHT22;26682;51.660;19.338;2023-07-13T06:47:17;25.30;65.00
40952;DHT22;26682;51.660;19.338;2023-07-13T06:50:00;25.20;1.00
40952;DHT22;26682;51.660;19.338;2023-07-13T06:52:42;24.90;1.00
40952;DHT22;26682;51.660;19.338;2023-07-13T06:55:25;24.80;1.00
40952;DHT22;26682;51.660;19.338;2023-07-13T06:58:08;24.80;1.00
40952;DHT22;26682;51.660;19.338;2023-07-13T07:00:52;24.70;1.00
40952;DHT22;26682;51.660;19.338;2023-07-13T07:03:35;24.70;1.00
40952;DHT22;26682;51.660;19.338;2023-07-13T07:06:19;24.40;1.00
40952;DHT22;26682;51.660;19.338;2023-07-13T07:09:02;24.20;1.00
40952;DHT22;26682;51.660;19.338;2023-07-13T07:11:45;24.00;1.00
40952;DHT22;26682;51.660;19.338;2023-07-13T07:14:43;23.90;1.00
40952;DHT22;26682;51.660;19.338;2023-07-13T07:17:26;23.80;1.00
40952;DHT22;26682;51.660;19.338;2023-07-13T07:20:09;23.80;1.00
40952;DHT22;26682;51.660;19.338;2023-07-13T07:22:52;23.80;1.00
40952;DHT22;26682;51.660;19.338;2023-07-13T07:25:34;23.80;1.00
40952;DHT22;26682;51.660;19.338;2023-07-13T07:28:19;23.80;1.00
40952;DHT22;26682;51.660;19.338;2023-07-13T07:31:05;23.70;1.00
40952;DHT22;26682;51.660;19.338;2023-07-13T07:33:50;23.70;1.00
40952;DHT22;26682;51.660;19.338;2023-07-13T07:36:34;23.70;1.00
40952;DHT22;26682;51.660;19.338;2023-07-13T07:39:19;23.50;2.40
40952;DHT22;26682;51.660;19.338;2023-07-13T07:42:02;23.50;8.80
40952;DHT22;26682;51.660;19.338;2023-07-13T07:44:44;23.30;35.50
40952;DHT22;26682;51.660;19.338;2023-07-13T07:47:27;23.20;75.40
40952;DHT22;26682;51.660;19.338;2023-07-13T07:50:10;23.10;99.90
40952;DHT22;26682;51.660;19.338;2023-07-13T07:52:52;23.10;99.90
40952;DHT22;26682;51.660;19.338;2023-07-13T07:55:35;23.00;1.00
40952;DHT22;26682;51.660;19.338;2023-07-13T07:58:21;22.80;99.90
40952;DHT22;26682;51.660;19.338;2023-07-13T08:01:06;22.10;99.90
40952;DHT22;26682;51.660;19.338;2023-07-13T08:03:52;21.70;1.00
40952;DHT22;26682;51.660;19.338;2023-07-13T08:06:40;21.10;99.90
40952;DHT22;26682;51.660;19.338;2023-07-13T08:09:27;20.70;1.00
40952;DHT22;26682;51.660;19.338;2023-07-13T08:12:09;20.20;99.90
40952;DHT22;26682;51.660;19.338;2023-07-13T08:14:55;20.00;1.00
40952;DHT22;26682;51.660;19.338;2023-07-13T08:17:40;19.80;1.00
40952;DHT22;26682;51.660;19.338;2023-07-13T08:20:26;19.60;1.00
40952;DHT22;26682;51.660;19.338;2023-07-13T08:23:09;19.50;1.00
40952;DHT22;26682;51.660;19.338;2023-07-13T08:25:53;19.40;99.90
40952;DHT22;26682;51.660;19.338;2023-07-13T08:28:36;19.20;99.90
40952;DHT22;26682;51.660;19.338;2023-07-13T08:31:19;19.10;99.90
40952;DHT22;26682;51.660;19.338;2023-07-13T08:34:01;18.90;99.90
40952;DHT22;26682;51.660;19.338;2023-07-13T08:36:44;18.30;1.00
40952;DHT22;26682;51.660;19.338;2023-07-13T08:39:27;18.10;99.90
40952;DHT22;26682;51.660;19.338;2023-07-13T08:48:13;18.00;99.90
40952;DHT22;26682;51.660;19.338;2023-07-13T08:54:22;18.40;99.90
40952;DHT22;26682;51.660;19.338;2023-07-13T08:57:14;18.50;99.90
40952;DHT22;26682;51.660;19.338;2023-07-13T08:59:58;18.40;99.90
40952;DHT22;26682;51.660;19.338;2023-07-13T09:02:59;18.30;99.90
40952;DHT22;26682;51.660;19.338;2023-07-13T09:05:42;18.20;99.90
40952;DHT22;26682;51.660;19.338;2023-07-13T09:09:06;18.10;99.90
40952;DHT22;26682;51.660;19.338;2023-07-13T09:12:09;18.20;99.90
40952;DHT22;26682;51.660;19.338;2023-07-13T09:14:55;18.40;99.90
40952;DHT22;26682;51.660;19.338;2023-07-13T09:17:51;18.40;99.90
40952;DHT22;26682;51.660;19.338;2023-07-13T09:23:37;18.50;99.90
40952;DHT22;26682;51.660;19.338;2023-07-13T09:26:22;18.50;60.90
40952;DHT22;26682;51.660;19.338;2023-07-13T09:29:20;18.60;93.80
40952;DHT22;26682;51.660;19.338;2023-07-13T09:32:07;18.60;1.00
40952;DHT22;26682;51.660;19.338;2023-07-13T09:34:54;18.70;83.10
40952;DHT22;26682;51.660;19.338;2023-07-13T09:37:37;18.70;6.90
40952;DHT22;26682;51.660;19.338;2023-07-13T09:44:00;18.80;43.80
40952;DHT22;26682;51.660;19.338;2023-07-13T09:46:51;18.80;15.80
40952;DHT22;26682;51.660;19.338;2023-07-13T09:49:36;18.90;33.70
40952;DHT22;26682;51.660;19.338;2023-07-13T09:52:20;18.90;5.20
40952;DHT22;26682;51.660;19.338;2023-07-13T09:55:02;18.90;1.00
40952;DHT22;26682;51.660;19.338;2023-07-13T09:57:47;19.00;99.90
40952;DHT22;26682;51.660;19.338;2023-07-13T10:00:33;18.90;1.00
40952;DHT22;26682;51.660;19.338;2023-07-13T10:03:22;18.80;22.90
40952;DHT22;26682;51.660;19.338;2023-07-13T10:06:20;18.80;31.50
40952;DHT22;26682;51.660;19.338;2023-07-13T10:09:07;18.90;53.30
40952;DHT22;26682;51.660;19.338;2023-07-13T10:11:50;18.90;99.90
40952;DHT22;26682;51.660;19.338;2023-07-13T10:14:34;19.00;99.90
40952;DHT22;26682;51.660;19.338;2023-07-13T10:17:19;19.10;99.90
40952;DHT22;26682;51.660;19.338;2023-07-13T10:20:04;19.20;99.90
40952;DHT22;26682;51.660;19.338;2023-07-13T10:23:02;19.10;95.70
40952;DHT22;26682;51.660;19.338;2023-07-13T10:25:47;19.10;90.90
40952;DHT22;26682;51.660;19.338;2023-07-13T10:28:33;19.20;99.90
40952;DHT22;26682;51.660;19.338;2023-07-13T10:31:17;19.20;45.70
40952;DHT22;26682;51.660;19.338;2023-07-13T10:34:00;19.20;56.20
40952;DHT22;26682;51.660;19.338;2023-07-13T10:36:45;19.20;99.90
40952;DHT22;26682;51.660;19.338;2023-07-13T10:39:30;19.20;99.90
40952;DHT22;26682;51.660;19.338;2023-07-13T10:42:18;19.10;99.90
40952;DHT22;26682;51.660;19.338;2023-07-13T10:45:25;19.00;99.90
40952;DHT22;26682;51.660;19.338;2023-07-13T10:48:12;19.00;99.90
40952;DHT22;26682;51.660;19.338;2023-07-13T10:50:58;18.90;99.90
40952;DHT22;26682;51.660;19.338;2023-07-13T10:53:44;19.00;99.90
40952;DHT22;26682;51.660;19.338;2023-07-13T10:56:30;19.10;99.90
40952;DHT22;26682;51.660;19.338;2023-07-13T10:59:24;19.10;99.90
40952;DHT22;26682;51.660;19.338;2023-07-13T11:02:14;19.10;99.90
40952;DHT22;26682;51.660;19.338;2023-07-13T11:04:58;19.20;99.90
40952;DHT22;26682;51.660;19.338;2023-07-13T11:10:53;19.30;99.90
40952;DHT22;26682;51.660;19.338;2023-07-13T11:19:18;19.40;99.90
40952;DHT22;26682;51.660;19.338;2023-07-13T11:22:13;19.50;99.90
40952;DHT22;26682;51.660;19.338;2023-07-13T11:24:59;19.60;99.90
40952;DHT22;26682;51.660;19.338;2023-07-13T11:27:45;19.60;99.90
40952;DHT22;26682;51.660;19.338;2023-07-13T11:33:18;19.70;99.90
40952;DHT22;26682;51.660;19.338;2023-07-13T11:36:14;19.70;99.90
40952;DHT22;26682;51.660;19.338;2023-07-13T11:39:02;19.70;99.90
40952;DHT22;26682;51.660;19.338;2023-07-13T11:41:53;19.70;99.90
40952;DHT22;26682;51.660;19.338;2023-07-13T11:44:47;19.80;99.90
40952;DHT22;26682;51.660;19.338;2023-07-13T11:47:50;19.60;99.90
40952;DHT22;26682;51.660;19.338;2023-07-13T11:50:33;19.60;99.90
40952;DHT22;26682;51.660;19.338;2023-07-13T11:53:16;19.60;99.90
40952;DHT22;26682;51.660;19.338;2023-07-13T11:55:59;19.80;99.90
40952;DHT22;26682;51.660;19.338;2023-07-13T11:58:41;19.80;99.90
40952;DHT22;26682;51.660;19.338;2023-07-13T12:01:28;19.80;99.90
40952;DHT22;26682;51.660;19.338;2023-07-13T12:04:34;19.70;99.90
40952;DHT22;26682;51.660;19.338;2023-07-13T12:07:18;19.80;99.90
40952;DHT22;26682;51.660;19.338;2023-07-13T12:10:15;19.70;99.90
40952;DHT22;26682;51.660;19.338;2023-07-13T12:13:04;19.70;99.90
40952;DHT22;26682;51.660;19.338;2023-07-13T12:15:49;19.80;99.90
40952;DHT22;26682;51.660;19.338;2023-07-13T12:18:34;19.90;99.90
40952;DHT22;26682;51.660;19.338;2023-07-13T12:21:19;19.90;99.90
40952;DHT22;26682;51.660;19.338;2023-07-13T12:24:02;20.00;99.90
40952;DHT22;26682;51.660;19.338;2023-07-13T12:26:59;20.10;99.90
40952;DHT22;26682;51.660;19.338;2023-07-13T12:29:57;20.10;36.90
40952;DHT22;26682;51.660;19.338;2023-07-13T12:32:40;20.00;1.00
40952;DHT22;26682;51.660;19.338;2023-07-13T12:35:23;19.90;1.00
40952;DHT22;26682;51.660;19.338;2023-07-13T12:38:09;20.10;1.00
40952;DHT22;26682;51.660;19.338;2023-07-13T12:40:53;20.20;1.00
40952;DHT22;26682;51.660;19.338;2023-07-13T12:43:37;20.50;1.00
40952;DHT22;26682;51.660;19.338;2023-07-13T12:46:23;20.70;1.00
40952;DHT22;26682;51.660;19.338;2023-07-13T12:49:07;20.80;1.00
40952;DHT22;26682;51.660;19.338;2023-07-13T12:52:10;20.80;99.90
40952;DHT22;26682;51.660;19.338;2023-07-13T12:55:07;20.90;99.90
40952;DHT22;26682;51.660;19.338;2023-07-13T12:57:58;20.80;99.90
40952;DHT22;26682;51.660;19.338;2023-07-13T13:00:41;20.80;1.00
40952;DHT22;26682;51.660;19.338;2023-07-13T13:03:39;20.80;1.00
40952;DHT22;26682;51.660;19.338;2023-07-13T13:06:26;20.90;99.90
40952;DHT22;26682;51.660;19.338;2023-07-13T13:09:12;21.00;99.90
40952;DHT22;26682;51.660;19.338;2023-07-13T13:11:55;21.00;99.90
40952;DHT22;26682;51.660;19.338;2023-07-13T13:14:38;21.00;99.90
40952;DHT22;26682;51.660;19.338;2023-07-13T13:17:24;21.10;99.90
40952;DHT22;26682;51.660;19.338;2023-07-13T13:20:19;21.30;99.90
40952;DHT22;26682;51.660;19.338;2023-07-13T13:23:02;21.40;99.90
40952;DHT22;26682;51.660;19.338;2023-07-13T13:25:49;21.60;99.90
40952;DHT22;26682;51.660;19.338;2023-07-13T13:28:33;21.60;1.00
40952;DHT22;26682;51.660;19.338;2023-07-13T13:31:16;21.50;99.90
40952;DHT22;26682;51.660;19.338;2023-07-13T13:33:59;21.50;99.90
40952;DHT22;26682;51.660;19.338;2023-07-13T13:36:44;21.60;12.30
40952;DHT22;26682;51.660;19.338;2023-07-13T13:39:32;21.80;1.00
40952;DHT22;26682;51.660;19.338;2023-07-13T13:42:15;21.70;99.90
40952;DHT22;26682;51.660;19.338;2023-07-13T13:44:58;21.90;99.90
40952;DHT22;26682;51.660;19.338;2023-07-13T13:47:42;22.00;30.90
40952;DHT22;26682;51.660;19.338;2023-07-13T13:50:25;21.80;99.90
40952;DHT22;26682;51.660;19.338;2023-07-13T13:53:12;21.60;25.20
40952;DHT22;26682;51.660;19.338;2023-07-13T13:55:55;21.70;99.90
40952;DHT22;26682;51.660;19.338;2023-07-13T13:58:39;21.70;1.00
40952;DHT22;26682;51.660;19.338;2023-07-13T14:01:22;21.70;1.00
40952;DHT22;26682;51.660;19.338;2023-07-13T14:04:20;21.70;99.90
40952;DHT22;26682;51.660;19.338;2023-07-13T14:07:03;21.80;99.90
40952;DHT22;26682;51.660;19.338;2023-07-13T14:09:46;21.90;99.90
40952;DHT22;26682;51.660;19.338;2023-07-13T14:12:29;21.90;99.90
40952;DHT22;26682;51.660;19.338;2023-07-13T14:15:25;22.00;99.90
40952;DHT22;26682;51.660;19.338;2023-07-13T14:18:08;22.00;99.90
40952;DHT22;26682;51.660;19.338;2023-07-13T14:20:51;22.00;1.00
40952;DHT22;26682;51.660;19.338;2023-07-13T14:23:37;21.90;99.90
40952;DHT22;26682;51.660;19.338;2023-07-13T14:26:26;21.90;1.00
40952;DHT22;26682;51.660;19.338;2023-07-13T14:29:18;21.90;1.00
40952;DHT22;26682;51.660;19.338;2023-07-13T14:32:10;21.90;1.00
40952;DHT22;26682;51.660;19.338;2023-07-13T14:34:53;22.00;1.00
40952;DHT22;26682;51.660;19.338;2023-07-13T14:37:37;22.00;1.00
40952;DHT22;26682;51.660;19.338;2023-07-13T14:40:25;22.00;31.30
40952;DHT22;26682;51.660;19.338;2023-07-13T14:43:14;22.00;1.00
40952;DHT22;26682;51.660;19.338;2023-07-13T14:45:57;22.10;1.00
40952;DHT22;26682;51.660;19.338;2023-07-13T14:48:40;22.20;1.00
40952;DHT22;26682;51.660;19.338;2023-07-13T14:51:25;22.30;1.00
40952;DHT22;26682;51.660;19.338;2023-07-13T14:54:08;22.30;1.00
40952;DHT22;26682;51.660;19.338;2023-07-13T14:56:52;22.40;1.00
40952;DHT22;26682;51.660;19.338;2023-07-13T14:59:34;22.40;1.00
40952;DHT22;26682;51.660;19.338;2023-07-13T15:02:33;22.40;1.00
40952;DHT22;26682;51.660;19.338;2023-07-13T15:05:18;22.40;1.00
40952;DHT22;26682;51.660;19.338;2023-07-13T15:08:02;22.60;1.00
40952;DHT22;26682;51.660;19.338;2023-07-13T15:10:45;22.80;1.00
40952;DHT22;26682;51.660;19.338;2023-07-13T15:13:28;22.80;1.00
40952;DHT22;26682;51.660;19.338;2023-07-13T15:16:18;22.80;1.00
40952;DHT22;26682;51.660;19.338;2023-07-13T15:19:03;23.00;63.30
40952;DHT22;26682;51.660;19.338;2023-07-13T15:21:47;23.10;62.40
40952;DHT22;26682;51.660;19.338;2023-07-13T15:24:30;23.20;1.00
40952;DHT22;26682;51.660;19.338;2023-07-13T15:27:13;23.10;1.00
40952;DHT22;26682;51.660;19.338;2023-07-13T15:29:55;23.00;1.00
40952;DHT22;26682;51.660;19.338;2023-07-13T15:32:38;22.80;1.00
40952;DHT22;26682;51.660;19.338;2023-07-13T15:35:24;22.70;1.00
40952;DHT22;26682;51.660;19.338;2023-07-13T15:38:25;22.70;1.00
40952;DHT22;26682;51.660;19.338;2023-07-13T15:44:08;22.80;1.00
40952;DHT22;26682;51.660;19.338;2023-07-13T15:47:03;23.00;1.00
40952;DHT22;26682;51.660;19.338;2023-07-13T15:49:46;23.00;99.90
40952;DHT22;26682;51.660;19.338;2023-07-13T15:52:35;23.00;99.90
40952;DHT22;26682;51.660;19.338;2023-07-13T15:55:17;23.00;99.90
40952;DHT22;26682;51.660;19.338;2023-07-13T15:58:00;22.90;1.00
40952;DHT22;26682;51.660;19.338;2023-07-13T16:00:43;22.90;1.00
40952;DHT22;26682;51.660;19.338;2023-07-13T16:03:27;22.70;1.00
40952;DHT22;26682;51.660;19.338;2023-07-13T16:06:18;22.70;1.00
40952;DHT22;26682;51.660;19.338;2023-07-13T16:09:02;22.80;1.00
40952;DHT22;26682;51.660;19.338;2023-07-13T16:11:46;22.70;1.00
40952;DHT22;26682;51.660;19.338;2023-07-13T16:14:29;22.60;1.00
40952;DHT22;26682;51.660;19.338;2023-07-13T16:17:12;22.60;1.00
40952;DHT22;26682;51.660;19.338;2023-07-13T16:19:58;22.60;6.60
40952;DHT22;26682;51.660;19.338;2023-07-13T16:22:45;22.50;99.90
40952;DHT22;26682;51.660;19.338;2023-07-13T16:25:28;22.40;99.90
40952;DHT22;26682;51.660;19.338;2023-07-13T16:28:13;22.30;99.90
40952;DHT22;26682;51.660;19.338;2023-07-13T16:30:56;22.30;99.90
40952;DHT22;26682;51.660;19.338;2023-07-13T16:33:39;22.20;99.90
40952;DHT22;26682;51.660;19.338;2023-07-13T16:36:22;22.20;1.00
40952;DHT22;26682;51.660;19.338;2023-07-13T16:39:11;22.20;1.00
40952;DHT22;26682;51.660;19.338;2023-07-13T16:41:55;22.10;20.40
40952;DHT22;26682;51.660;19.338;2023-07-13T16:44:38;22.00;99.90
40952;DHT22;26682;51.660;19.338;2023-07-13T16:47:23;22.00;99.90
40952;DHT22;26682;51.660;19.338;2023-07-13T16:50:17;21.90;99.90
40952;DHT22;26682;51.660;19.338;2023-07-13T16:53:01;21.80;1.00
40952;DHT22;26682;51.660;19.338;2023-07-13T16:55:49;21.80;99.90
40952;DHT22;26682;51.660;19.338;2023-07-13T16:58:33;21.70;99.90
40952;DHT22;26682;51.660;19.338;2023-07-13T17:01:17;21.70;9.60
40952;DHT22;26682;51.660;19.338;2023-07-13T17:03:59;21.60;99.90
40952;DHT22;26682;51.660;19.338;2023-07-13T17:06:43;21.50;99.90
40952;DHT22;26682;51.660;19.338;2023-07-13T17:09:29;21.40;1.00
40952;DHT22;26682;51.660;19.338;2023-07-13T17:12:13;21.30;99.90
40952;DHT22;26682;51.660;19.338;2023-07-13T17:14:55;21.20;99.90
40952;DHT22;26682;51.660;19.338;2023-07-13T17:17:39;21.10;99.90
40952;DHT22;26682;51.660;19.338;2023-07-13T17:20:29;21.00;1.00
40952;DHT22;26682;51.660;19.338;2023-07-13T17:25:59;20.60;99.90
40952;DHT22;26682;51.660;19.338;2023-07-13T17:28:42;20.40;99.90
40952;DHT22;26682;51.660;19.338;2023-07-13T17:31:25;20.20;99.90
40952;DHT22;26682;51.660;19.338;2023-07-13T17:34:11;20.00;99.90
40952;DHT22;26682;51.660;19.338;2023-07-13T17:36:54;19.80;99.90
40952;DHT22;26682;51.660;19.338;2023-07-13T17:39:39;19.30;99.90
40952;DHT22;26682;51.660;19.338;2023-07-13T17:42:22;18.80;99.90
40952;DHT22;26682;51.660;19.338;2023-07-13T17:45:05;18.40;99.90
40952;DHT22;26682;51.660;19.338;2023-07-13T17:47:49;18.10;1.00